Time;durP1;ratioP1;P1;durP2;ratioP2;P2;SDS_P1;SDS_P2;PMS_P1;PMS_P2;Temp;Humidity;BMP_temperature;BMP_pressure;BME280_temperature;BME280_humidity;BME280_pressure;Samples;Min_cycle;Max_cycle;Signal;HPM_P1;HPM_P2
2023/08/20 00:02:01;;;;;;;4.88;1.70;;;15.40;99.90;;;;;;5063475;28;20041;-86
2023/08/20 00:04:27;;;;;;;5.97;1.73;;;15.30;99.90;;;;;;5059777;28;20525;-85
2023/08/20 00:06:53;;;;;;;9.00;2.20;;;15.30;99.90;;;;;;5066413;28;20052;-85
2023/08/20 00:09:20;;;;;;;8.43;2.40;;;15.30;99.90;;;;;;5061025;28;20048;-86
2023/08/20 00:11:46;;;;;;;8.27;2.10;;;15.30;99.90;;;;;;5053592;28;20550;-85
2023/08/20 00:14:16;;;;;;;6.88;2.00;;;15.30;99.90;;;;;;5082697;28;20049;-86
2023/08/20 00:16:43;;;;;;;5.50;1.95;;;15.30;99.90;;;;;;5083812;28;20412;-86
2023/08/20 00:19:10;;;;;;;4.30;1.70;;;15.30;99.90;;;;;;5080740;28;20119;-85
2023/08/20 00:21:44;;;;;;;10.15;2.58;;;15.30;99.90;;;;;;5084833;28;20051;-86
2023/08/20 00:24:11;;;;;;;3.28;1.33;;;15.30;99.90;;;;;;5066167;28;20044;-85
2023/08/20 00:26:37;;;;;;;6.38;1.60;;;15.20;99.90;;;;;;5069254;28;20115;-86
2023/08/20 00:29:03;;;;;;;2.28;0.70;;;15.10;99.90;;;;;;5081840;28;20044;-86
2023/08/20 00:31:29;;;;;;;5.53;1.95;;;15.10;99.90;;;;;;5087031;28;20039;-86
2023/08/20 00:33:55;;;;;;;3.83;1.50;;;15.10;99.90;;;;;;5069825;28;20174;-86
2023/08/20 00:36:20;;;;;;;4.78;1.60;;;15.10;99.90;;;;;;5045968;28;20040;-86
2023/08/20 00:38:46;;;;;;;6.60;2.38;;;15.10;99.90;;;;;;5067066;28;20047;-85
2023/08/20 00:41:12;;;;;;;8.38;2.55;;;15.10;99.90;;;;;;5053939;28;20051;-86
2023/08/20 00:43:37;;;;;;;4.82;1.90;;;15.10;99.90;;;;;;5070601;28;20113;-86
2023/08/20 00:46:03;;;;;;;6.45;2.22;;;15.10;99.90;;;;;;5069751;28;20498;-85
2023/08/20 00:48:29;;;;;;;8.75;2.50;;;15.10;99.90;;;;;;5070896;28;20054;-85
2023/08/20 00:50:55;;;;;;;7.60;2.47;;;15.10;99.90;;;;;;5069646;28;20063;-86
2023/08/20 00:53:21;;;;;;;4.75;1.90;;;15.10;99.90;;;;;;5088652;28;20286;-86
2023/08/20 00:55:47;;;;;;;5.07;1.80;;;15.10;99.90;;;;;;5070885;28;20052;-86
2023/08/20 00:58:13;;;;;;;5.63;1.60;;;15.10;99.90;;;;;;5053250;28;20538;-86
2023/08/20 01:00:38;;;;;;;7.30;2.03;;;15.00;99.90;;;;;;5053787;28;20044;-86
2023/08/20 01:03:05;;;;;;;3.58;1.45;;;15.00;99.90;;;;;;5074605;28;20487;-86
2023/08/20 01:05:36;;;;;;;2.05;1.10;;;14.90;99.90;;;;;;5069645;28;20036;-85
2023/08/20 01:08:12;;;;;;;5.25;1.33;;;14.90;99.90;;;;;;5070468;28;20081;-85
2023/08/20 01:10:57;;;;;;;5.22;1.63;;;14.80;99.90;;;;;;5070094;28;20075;-86
2023/08/20 01:13:23;;;;;;;4.93;2.00;;;14.80;99.90;;;;;;5069794;28;20048;-86
2023/08/20 01:15:49;;;;;;;4.40;1.50;;;14.80;99.90;;;;;;5087606;28;20213;-85
2023/08/20 01:18:15;;;;;;;4.30;1.52;;;14.70;99.90;;;;;;5069565;28;20127;-86
2023/08/20 01:20:47;;;;;;;6.25;2.00;;;14.70;99.90;;;;;;5069589;28;20052;-86
2023/08/20 01:23:42;;;;;;;4.05;1.83;;;14.70;99.90;;;;;;5070461;28;20043;-86
2023/08/20 01:26:29;;;;;;;10.38;3.33;;;14.70;99.90;;;;;;5069277;28;20044;-86
2023/08/20 01:28:55;;;;;;;6.93;2.47;;;14.70;99.90;;;;;;5052829;28;20055;-86
2023/08/20 01:31:23;;;;;;;9.05;2.20;;;14.70;99.90;;;;;;5069842;28;20099;-86
2023/08/20 01:33:49;;;;;;;8.63;3.33;;;14.70;99.90;;;;;;5051347;28;20040;-86
2023/08/20 01:36:17;;;;;;;7.53;2.70;;;14.60;99.90;;;;;;5070222;28;20035;-86
2023/08/20 01:38:42;;;;;;;4.25;1.85;;;14.70;99.90;;;;;;5052678;28;20052;-86
2023/08/20 01:41:08;;;;;;;3.80;1.92;;;14.70;99.90;;;;;;5052271;28;20467;-86
2023/08/20 01:43:34;;;;;;;7.65;2.85;;;14.70;99.90;;;;;;5068811;28;20499;-86
2023/08/20 01:46:00;;;;;;;5.32;2.13;;;14.70;99.90;;;;;;5068684;28;20043;-86
2023/08/20 01:48:25;;;;;;;8.93;2.38;;;14.60;99.90;;;;;;5087181;28;20116;-86
2023/08/20 01:50:51;;;;;;;5.88;2.88;;;14.70;99.90;;;;;;5065809;28;20204;-86
2023/08/20 01:53:17;;;;;;;7.43;2.70;;;14.60;99.90;;;;;;5069771;28;20090;-86
2023/08/20 01:55:42;;;;;;;6.07;2.28;;;14.60;99.90;;;;;;5068321;28;20555;-86
2023/08/20 01:58:08;;;;;;;7.47;2.65;;;14.60;99.90;;;;;;5052148;28;20047;-86
2023/08/20 02:00:34;;;;;;;7.97;2.70;;;14.60;99.90;;;;;;5069885;28;20131;-85
2023/08/20 02:02:59;;;;;;;4.93;2.22;;;14.60;99.90;;;;;;5086181;28;20158;-86
2023/08/20 02:05:25;;;;;;;9.70;2.83;;;14.60;99.90;;;;;;5070090;28;20036;-84
2023/08/20 02:07:51;;;;;;;5.78;1.90;;;14.60;99.90;;;;;;5069139;28;20349;-85
2023/08/20 02:10:17;;;;;;;7.55;2.70;;;14.60;99.90;;;;;;5086883;28;20040;-86
2023/08/20 02:12:43;;;;;;;6.63;2.30;;;14.50;99.90;;;;;;5068958;28;20098;-85
2023/08/20 02:15:11;;;;;;;6.25;2.40;;;14.60;99.90;;;;;;5087309;28;20458;-85
2023/08/20 02:17:36;;;;;;;2.70;0.93;;;14.60;99.90;;;;;;5068746;28;20044;-86
2023/08/20 02:20:04;;;;;;;5.65;2.20;;;14.60;99.90;;;;;;5069687;28;20185;-85
2023/08/20 02:22:30;;;;;;;6.03;1.65;;;14.50;99.90;;;;;;5051790;28;20128;-85
2023/08/20 02:24:55;;;;;;;8.15;1.70;;;14.50;99.90;;;;;;5069433;28;20074;-85
2023/08/20 02:27:21;;;;;;;7.80;2.15;;;14.50;99.90;;;;;;5069417;28;20059;-86
2023/08/20 02:29:47;;;;;;;6.05;2.33;;;14.40;99.90;;;;;;5065270;28;20044;-85
2023/08/20 02:32:13;;;;;;;8.68;3.38;;;14.40;99.90;;;;;;5069016;28;20051;-85
2023/08/20 02:34:38;;;;;;;8.18;3.30;;;14.40;99.90;;;;;;5086998;28;20048;-86
2023/08/20 02:37:04;;;;;;;10.80;3.47;;;14.40;99.90;;;;;;5086567;28;20038;-86
2023/08/20 02:39:31;;;;;;;11.00;3.22;;;14.40;99.90;;;;;;5069802;28;20403;-86
2023/08/20 02:41:57;;;;;;;6.65;2.85;;;14.40;99.90;;;;;;5084881;28;20040;-86
2023/08/20 02:44:23;;;;;;;6.90;2.80;;;14.40;99.90;;;;;;5043847;28;20507;-86
2023/08/20 02:46:49;;;;;;;9.20;3.03;;;14.40;99.90;;;;;;5044767;28;20117;-86
2023/08/20 02:49:15;;;;;;;10.32;3.25;;;14.40;99.90;;;;;;5042312;28;20048;-86
2023/08/20 02:51:42;;;;;;;9.88;3.47;;;14.40;99.90;;;;;;5067448;28;20406;-86
2023/08/20 02:54:08;;;;;;;13.02;5.00;;;14.40;99.90;;;;;;5053221;28;20079;-86
2023/08/20 02:56:33;;;;;;;13.15;5.18;;;14.50;99.90;;;;;;5072681;28;20662;-85
2023/08/20 02:58:59;;;;;;;12.75;5.70;;;14.50;99.90;;;;;;5071984;28;20036;-86
2023/08/20 03:01:26;;;;;;;16.08;6.10;;;14.70;99.90;;;;;;5057388;28;20040;-86
2023/08/20 03:03:52;;;;;;;14.40;6.38;;;14.70;99.90;;;;;;5060681;28;20055;-85
2023/08/20 03:06:18;;;;;;;16.30;6.22;;;14.80;99.90;;;;;;5052972;28;20344;-86
2023/08/20 03:08:44;;;;;;;16.08;5.97;;;14.80;99.90;;;;;;5055787;28;20059;-85
2023/08/20 03:11:09;;;;;;;12.13;5.03;;;14.80;99.90;;;;;;5069918;28;20098;-85
2023/08/20 03:13:35;;;;;;;10.23;4.13;;;14.90;99.90;;;;;;5071972;28;20068;-86
2023/08/20 03:16:02;;;;;;;8.52;3.85;;;14.80;99.90;;;;;;5070909;28;20112;-86
2023/08/20 03:18:28;;;;;;;10.98;3.67;;;14.70;99.90;;;;;;5069108;28;20029;-85
2023/08/20 03:20:55;;;;;;;8.55;4.30;;;14.60;99.90;;;;;;5055132;28;20391;-86
2023/08/20 03:23:22;;;;;;;6.57;3.50;;;14.60;99.90;;;;;;5072857;28;20038;-86
2023/08/20 03:25:47;;;;;;;8.30;3.55;;;14.50;99.90;;;;;;5088375;28;20047;-86
2023/08/20 03:28:13;;;;;;;6.85;3.65;;;14.50;99.90;;;;;;5078816;28;20048;-87
2023/08/20 03:30:39;;;;;;;11.93;3.40;;;14.40;99.90;;;;;;5089905;28;20039;-85
2023/08/20 03:33:04;;;;;;;8.18;3.60;;;14.40;99.90;;;;;;5070918;28;20044;-85
2023/08/20 03:35:30;;;;;;;6.95;3.55;;;14.40;99.90;;;;;;5072137;28;20075;-86
2023/08/20 03:37:56;;;;;;;4.95;2.70;;;14.30;99.90;;;;;;5071765;28;20070;-86
2023/08/20 03:40:22;;;;;;;4.30;2.45;;;14.30;99.90;;;;;;5059114;28;20040;-86
2023/08/20 03:42:50;;;;;;;8.75;2.65;;;14.30;99.90;;;;;;5054282;28;20051;-86
2023/08/20 03:45:16;;;;;;;5.35;2.72;;;14.30;99.90;;;;;;5072371;28;20467;-85
2023/08/20 03:47:44;;;;;;;15.90;4.93;;;14.30;99.90;;;;;;5053808;28;20067;-86
2023/08/20 03:50:10;;;;;;;9.32;4.32;;;14.20;99.90;;;;;;5072343;28;20052;-87
2023/08/20 03:52:35;;;;;;;5.90;2.72;;;14.20;99.90;;;;;;5055164;28;20035;-86
2023/08/20 03:55:02;;;;;;;7.45;3.60;;;14.20;99.90;;;;;;5088535;28;20406;-86
2023/08/20 03:57:28;;;;;;;9.82;3.80;;;14.20;99.90;;;;;;5068416;28;20549;-86
2023/08/20 03:59:54;;;;;;;10.40;4.53;;;14.20;99.90;;;;;;5054985;28;20225;-86
2023/08/20 04:02:19;;;;;;;12.48;4.43;;;14.20;99.90;;;;;;5045365;28;20074;-87
2023/08/20 04:04:45;;;;;;;9.52;4.95;;;14.20;99.90;;;;;;5050074;28;20125;-86
2023/08/20 04:07:11;;;;;;;8.35;3.22;;;14.20;99.90;;;;;;5054403;28;20048;-86
2023/08/20 04:09:38;;;;;;;5.15;2.92;;;14.10;99.90;;;;;;5075251;28;20040;-87
2023/08/20 04:12:04;;;;;;;5.95;2.85;;;14.10;99.90;;;;;;5090112;28;20037;-86
2023/08/20 04:14:30;;;;;;;5.90;2.90;;;14.10;99.90;;;;;;5089932;28;20048;-86
2023/08/20 04:16:55;;;;;;;6.07;3.88;;;14.10;99.90;;;;;;5052947;28;20066;-86
2023/08/20 04:19:21;;;;;;;7.88;3.58;;;14.10;99.90;;;;;;5054174;28;20106;-86
2023/08/20 04:21:51;;;;;;;7.38;3.95;;;14.10;99.90;;;;;;5070334;28;20044;-86
2023/08/20 04:24:23;;;;;;;28.35;4.57;;;14.00;99.90;;;;;;5055841;28;20055;-86
2023/08/20 04:26:48;;;;;;;7.50;3.75;;;14.00;99.90;;;;;;5071032;28;20071;-86
2023/08/20 04:29:14;;;;;;;5.68;3.08;;;14.00;99.90;;;;;;5054406;28;20036;-86
2023/08/20 04:31:52;;;;;;;7.40;3.83;;;14.00;99.90;;;;;;5053515;28;20606;-86
2023/08/20 04:34:18;;;;;;;8.00;3.60;;;14.00;99.90;;;;;;5084433;28;20501;-86
2023/08/20 04:36:47;;;;;;;16.20;4.50;;;13.90;99.90;;;;;;5051174;28;20128;-86
2023/08/20 04:39:12;;;;;;;11.73;4.57;;;13.90;99.90;;;;;;5049061;28;20040;-86
2023/08/20 04:41:38;;;;;;;10.88;4.43;;;13.90;99.90;;;;;;5062683;28;20108;-85
2023/08/20 04:44:04;;;;;;;9.48;4.47;;;13.90;99.90;;;;;;5054194;28;20394;-86
2023/08/20 04:46:29;;;;;;;18.85;7.05;;;13.90;99.90;;;;;;5053885;28;20148;-86
2023/08/20 04:48:55;;;;;;;14.40;6.75;;;14.00;99.90;;;;;;5052176;28;20052;-86
2023/08/20 04:51:21;;;;;;;16.58;8.27;;;14.10;99.90;;;;;;5062842;28;20088;-86
2023/08/20 04:53:47;;;;;;;14.60;7.53;;;14.20;99.90;;;;;;5048583;28;20131;-86
2023/08/20 04:56:13;;;;;;;20.85;6.85;;;14.30;99.90;;;;;;5081589;28;20526;-86
2023/08/20 04:58:39;;;;;;;18.65;6.40;;;14.40;99.90;;;;;;5053431;28;20109;-86
2023/08/20 05:01:05;;;;;;;12.77;5.78;;;14.50;99.90;;;;;;5070943;28;20047;-86
2023/08/20 05:03:31;;;;;;;16.33;5.70;;;14.60;99.90;;;;;;5069091;28;20044;-85
2023/08/20 05:05:57;;;;;;;17.52;6.50;;;14.70;99.90;;;;;;5046010;28;20101;-85
2023/08/20 05:08:23;;;;;;;16.40;5.80;;;14.70;99.90;;;;;;5075711;28;20429;-86
2023/08/20 05:10:50;;;;;;;14.93;5.70;;;14.80;99.90;;;;;;5087007;28;20043;-85
2023/08/20 05:13:16;;;;;;;16.75;6.05;;;14.90;99.90;;;;;;5070282;28;20399;-85
2023/08/20 05:15:42;;;;;;;20.92;6.38;;;15.00;99.90;;;;;;5061087;28;20525;-85
2023/08/20 05:18:08;;;;;;;14.15;5.68;;;15.10;99.90;;;;;;5055446;28;20071;-85
2023/08/20 05:20:34;;;;;;;15.05;6.60;;;15.10;99.90;;;;;;5070358;28;20043;-85
2023/08/20 05:22:59;;;;;;;13.15;6.30;;;15.10;99.90;;;;;;5052835;28;20048;-85
2023/08/20 05:25:25;;;;;;;16.13;5.65;;;15.20;99.90;;;;;;5059436;28;20028;-85
2023/08/20 05:27:51;;;;;;;12.30;5.95;;;15.30;99.90;;;;;;5069876;28;20501;-85
2023/08/20 05:30:17;;;;;;;19.35;6.80;;;15.30;99.90;;;;;;5053587;28;20050;-85
2023/08/20 05:32:42;;;;;;;14.30;6.32;;;15.40;99.90;;;;;;5052008;28;20135;-85
2023/08/20 05:35:08;;;;;;;18.80;6.38;;;15.40;99.90;;;;;;5058333;28;20123;-85
2023/08/20 05:37:34;;;;;;;15.95;6.50;;;15.50;99.90;;;;;;5069030;28;20128;-85
2023/08/20 05:40:03;;;;;;;17.73;6.30;;;15.60;99.90;;;;;;5069142;28;20119;-86
2023/08/20 05:42:29;;;;;;;19.65;6.13;;;15.60;99.90;;;;;;5052477;28;20120;-85
2023/08/20 05:44:54;;;;;;;16.98;5.93;;;15.70;99.90;;;;;;5069337;28;20052;-85
2023/08/20 05:47:20;;;;;;;17.08;6.28;;;15.80;99.90;;;;;;5051372;28;20048;-84
2023/08/20 05:49:46;;;;;;;16.33;5.95;;;15.90;99.90;;;;;;5069560;28;20093;-85
2023/08/20 05:52:12;;;;;;;12.00;5.57;;;15.90;99.90;;;;;;5056859;28;20032;-85
2023/08/20 05:54:37;;;;;;;18.15;6.15;;;16.00;99.90;;;;;;5087488;28;20124;-85
2023/08/20 05:57:03;;;;;;;11.98;4.97;;;16.10;99.90;;;;;;5069424;28;20043;-85
2023/08/20 05:59:29;;;;;;;16.35;4.88;;;16.20;99.90;;;;;;5087734;28;20197;-85
2023/08/20 06:01:55;;;;;;;16.30;4.93;;;16.30;99.90;;;;;;5067922;28;20044;-85
2023/08/20 06:04:21;;;;;;;18.70;4.85;;;16.40;99.90;;;;;;5061314;28;20032;-85
2023/08/20 06:06:46;;;;;;;16.88;4.80;;;16.50;99.90;;;;;;5063369;28;20052;-85
2023/08/20 06:09:13;;;;;;;16.33;5.10;;;16.60;99.90;;;;;;5044999;28;20103;-85
2023/08/20 06:11:38;;;;;;;16.92;4.90;;;16.70;99.90;;;;;;5051793;28;20052;-85
2023/08/20 06:14:05;;;;;;;13.98;4.90;;;16.80;99.90;;;;;;5088006;28;20051;-84
2023/08/20 06:16:31;;;;;;;15.65;5.28;;;16.80;99.90;;;;;;5051471;28;20075;-84
2023/08/20 06:18:57;;;;;;;15.80;4.97;;;17.00;99.90;;;;;;5053465;28;20155;-85
2023/08/20 06:21:23;;;;;;;14.30;5.00;;;17.10;99.90;;;;;;5051555;28;20040;-84
2023/08/20 06:23:49;;;;;;;16.70;4.97;;;17.20;99.90;;;;;;5068523;28;20051;-85
2023/08/20 06:26:15;;;;;;;16.73;4.72;;;17.20;99.90;;;;;;5052401;28;20040;-85
2023/08/20 06:28:40;;;;;;;17.67;5.05;;;17.30;99.90;;;;;;5068569;28;20122;-84
2023/08/20 06:31:06;;;;;;;15.57;5.07;;;17.40;99.90;;;;;;5086676;28;20094;-85
2023/08/20 06:33:32;;;;;;;16.75;5.40;;;17.50;99.90;;;;;;5055510;28;20124;-84
2023/08/20 06:35:57;;;;;;;18.55;4.93;;;17.60;99.90;;;;;;5066824;28;20166;-84
2023/08/20 06:38:23;;;;;;;12.50;3.90;;;17.70;99.90;;;;;;5065055;28;20104;-84
2023/08/20 06:40:50;;;;;;;13.40;4.32;;;17.70;99.90;;;;;;5060380;28;20604;-85
2023/08/20 06:43:16;;;;;;;18.75;4.28;;;17.90;99.90;;;;;;5026218;28;20044;-84
2023/08/20 06:45:41;;;;;;;21.30;5.38;;;17.90;99.90;;;;;;5087513;28;20093;-84
2023/08/20 06:48:07;;;;;;;16.20;4.18;;;18.00;99.90;;;;;;5078521;28;20379;-85
2023/08/20 06:50:33;;;;;;;18.95;4.80;;;18.10;99.90;;;;;;5069535;28;20082;-85
2023/08/20 06:52:58;;;;;;;17.90;4.15;;;18.20;99.90;;;;;;5047230;28;20109;-84
2023/08/20 06:55:24;;;;;;;18.38;3.92;;;18.30;99.90;;;;;;5063398;28;20039;-86
2023/08/20 06:57:50;;;;;;;13.05;3.80;;;18.40;99.90;;;;;;5089388;28;20517;-85
2023/08/20 07:00:16;;;;;;;16.98;3.83;;;18.50;99.90;;;;;;5050285;28;20119;-86
2023/08/20 07:02:41;;;;;;;17.58;3.97;;;18.50;99.90;;;;;;5063116;28;20545;-85
2023/08/20 07:05:09;;;;;;;18.70;4.20;;;18.70;99.90;;;;;;5069065;28;20513;-85
2023/08/20 07:07:35;;;;;;;13.70;3.25;;;18.70;99.90;;;;;;5054160;28;20040;-85
2023/08/20 07:10:04;;;;;;;13.98;3.58;;;18.80;99.90;;;;;;5054427;28;20047;-85
2023/08/20 07:12:30;;;;;;;18.77;4.18;;;18.90;99.90;;;;;;5078948;28;20048;-86
2023/08/20 07:14:55;;;;;;;13.32;3.40;;;19.00;99.90;;;;;;5050464;28;20032;-85
2023/08/20 07:17:21;;;;;;;16.02;3.72;;;19.10;99.90;;;;;;5046178;28;20048;-84
2023/08/20 07:19:47;;;;;;;13.50;3.65;;;19.20;99.90;;;;;;5067007;28;20173;-84
2023/08/20 07:22:13;;;;;;;13.88;3.25;;;19.30;99.90;;;;;;5052511;28;20044;-85
2023/08/20 07:24:39;;;;;;;15.40;3.42;;;19.30;99.90;;;;;;5077417;28;20055;-84
2023/08/20 07:27:10;;;;;;;13.27;3.20;;;19.40;99.90;;;;;;5065463;28;20398;-85
2023/08/20 07:29:36;;;;;;;14.80;3.70;;;19.50;99.90;;;;;;5054470;28;20064;-85
2023/08/20 07:32:03;;;;;;;15.75;3.65;;;19.60;99.90;;;;;;5051327;28;20040;-83
2023/08/20 07:34:30;;;;;;;16.88;3.47;;;19.70;99.90;;;;;;5085074;28;20436;-83
2023/08/20 07:36:56;;;;;;;11.95;3.47;;;19.80;99.90;;;;;;5068231;28;20094;-83
2023/08/20 07:39:22;;;;;;;19.10;3.80;;;19.90;99.90;;;;;;5066102;28;20090;-83
2023/08/20 07:41:48;;;;;;;15.45;3.25;;;19.90;99.90;;;;;;5064934;28;20491;-83
2023/08/20 07:44:13;;;;;;;13.55;3.08;;;20.00;99.90;;;;;;5068216;28;20135;-82
2023/08/20 07:46:39;;;;;;;11.68;2.80;;;20.10;99.90;;;;;;5087240;28;20044;-83
2023/08/20 07:49:05;;;;;;;14.40;3.00;;;20.10;99.90;;;;;;5054043;28;20585;-85
2023/08/20 07:51:31;;;;;;;12.23;2.72;;;20.20;99.90;;;;;;5063844;28;20036;-84
2023/08/20 07:53:58;;;;;;;11.50;2.70;;;20.20;99.90;;;;;;5068271;28;20055;-85
2023/08/20 07:56:24;;;;;;;12.75;2.67;;;20.30;99.90;;;;;;5054623;28;20036;-84
2023/08/20 07:58:50;;;;;;;16.60;3.20;;;20.40;99.90;;;;;;5086852;28;20462;-85
2023/08/20 08:01:16;;;;;;;14.60;2.75;;;20.50;99.90;;;;;;5066435;28;20043;-84
2023/08/20 08:03:42;;;;;;;14.80;2.53;;;20.50;99.90;;;;;;5067444;28;20077;-84
2023/08/20 08:06:08;;;;;;;12.50;2.30;;;20.60;99.90;;;;;;5067003;28;20040;-84
2023/08/20 08:08:33;;;;;;;13.15;2.88;;;20.70;99.90;;;;;;5065982;28;20051;-85
2023/08/20 08:10:59;;;;;;;14.77;2.33;;;20.80;99.90;;;;;;5084421;28;20028;-84
2023/08/20 08:13:25;;;;;;;17.80;3.05;;;20.80;99.90;;;;;;5086082;28;20048;-84
2023/08/20 08:15:51;;;;;;;16.52;2.80;;;20.90;99.90;;;;;;5083342;28;20048;-83
2023/08/20 08:18:19;;;;;;;14.48;2.60;;;20.90;99.90;;;;;;5037449;28;20056;-84
2023/08/20 08:20:45;;;;;;;15.48;2.40;;;21.00;99.90;;;;;;5084229;28;20727;-83
2023/08/20 08:23:10;;;;;;;12.75;2.25;;;21.10;99.90;;;;;;5066055;28;20078;-83
2023/08/20 08:25:37;;;;;;;12.73;2.60;;;21.30;99.90;;;;;;5066485;28;20087;-84
2023/08/20 08:28:04;;;;;;;12.38;2.20;;;21.40;99.90;;;;;;5084010;28;20043;-84
2023/08/20 08:30:30;;;;;;;14.20;2.38;;;21.40;99.90;;;;;;5049678;28;20035;-83
2023/08/20 08:32:55;;;;;;;12.93;2.28;;;21.50;99.90;;;;;;5067049;28;20054;-83
2023/08/20 08:35:21;;;;;;;12.40;2.42;;;21.50;99.90;;;;;;5085216;28;20401;-83
2023/08/20 08:37:47;;;;;;;14.32;2.28;;;21.60;99.90;;;;;;5066675;28;20135;-85
2023/08/20 08:40:14;;;;;;;12.70;2.63;;;21.70;99.90;;;;;;5053738;28;20546;-83
2023/08/20 08:42:42;;;;;;;11.57;2.15;;;21.70;99.90;;;;;;5050735;28;20138;-82
2023/08/20 08:45:09;;;;;;;13.77;2.58;;;21.80;99.90;;;;;;5069930;28;20040;-83
2023/08/20 08:47:36;;;;;;;12.18;2.15;;;21.80;99.90;;;;;;5059440;28;20052;-83
2023/08/20 08:50:02;;;;;;;11.52;2.45;;;21.90;99.90;;;;;;5051158;28;20335;-84
2023/08/20 08:52:28;;;;;;;11.63;2.35;;;22.00;99.90;;;;;;5050606;28;20040;-83
2023/08/20 08:54:54;;;;;;;10.50;1.92;;;22.00;99.90;;;;;;5046057;28;20461;-83
2023/08/20 08:57:20;;;;;;;10.75;1.88;;;22.10;99.90;;;;;;5065720;28;20083;-84
2023/08/20 08:59:45;;;;;;;10.35;1.80;;;22.20;99.90;;;;;;5067761;28;20068;-83
2023/08/20 09:02:12;;;;;;;9.95;1.70;;;22.30;99.90;;;;;;5059811;28;20116;-83
2023/08/20 09:04:42;;;;;;;11.50;2.03;;;22.40;99.90;;;;;;5057542;28;20119;-84
2023/08/20 09:07:15;;;;;;;13.88;2.00;;;22.40;99.90;;;;;;5063905;28;20036;-84
2023/08/20 09:09:45;;;;;;;10.10;1.63;;;22.40;99.90;;;;;;5058052;28;20044;-84
2023/08/20 09:12:16;;;;;;;12.38;1.83;;;22.50;99.90;;;;;;5060841;28;20047;-84
2023/08/20 09:14:51;;;;;;;12.27;1.65;;;22.60;99.90;;;;;;5063771;28;20131;-84
2023/08/20 09:17:19;;;;;;;13.00;1.70;;;22.70;99.90;;;;;;5060302;28;20444;-84
2023/08/20 09:19:45;;;;;;;8.23;1.60;;;22.70;99.90;;;;;;5066154;28;20044;-85
2023/08/20 09:22:12;;;;;;;7.68;1.52;;;22.80;99.90;;;;;;5066683;28;20110;-84
2023/08/20 09:24:46;;;;;;;11.65;2.15;;;22.90;99.90;;;;;;5048972;28;20048;-87
2023/08/20 09:27:13;;;;;;;9.85;1.50;;;23.00;99.90;;;;;;5066940;28;20040;-84
2023/08/20 09:29:57;;;;;;;10.48;1.60;;;23.10;99.90;;;;;;5045694;28;20524;-84
2023/08/20 09:32:28;;;;;;;17.27;2.63;;;23.10;99.90;;;;;;5059891;28;20048;-86
2023/08/20 09:34:55;;;;;;;10.80;1.67;;;23.10;99.90;;;;;;5039623;28;20045;-83
2023/08/20 09:37:22;;;;;;;13.90;2.05;;;23.20;99.90;;;;;;5055400;28;20051;-88
2023/08/20 09:39:49;;;;;;;9.13;1.60;;;23.30;99.90;;;;;;5049476;28;20051;-84
2023/08/20 09:42:15;;;;;;;14.48;1.83;;;23.40;99.90;;;;;;5066372;28;20051;-84
2023/08/20 09:44:45;;;;;;;11.65;1.65;;;23.40;99.90;;;;;;5080514;28;20040;-83
2023/08/20 09:47:15;;;;;;;15.70;2.03;;;23.50;99.90;;;;;;5073141;28;20056;-85
2023/08/20 09:49:44;;;;;;;14.85;2.08;;;23.50;99.90;;;;;;5053778;28;20048;-86
2023/08/20 09:52:12;;;;;;;9.18;1.30;;;23.60;99.90;;;;;;5072539;28;20047;-84
2023/08/20 09:54:52;;;;;;;13.85;1.90;;;23.60;99.90;;;;;;5056880;28;20045;-85
2023/08/20 09:57:39;;;;;;;11.05;1.70;;;23.60;99.90;;;;;;5052373;28;20165;-84
2023/08/20 10:00:11;;;;;;;6.65;1.60;;;23.40;99.90;;;;;;5056567;28;20071;-84
2023/08/20 10:02:44;;;;;;;11.32;2.25;;;23.40;99.90;;;;;;5056195;28;20048;-85
2023/08/20 10:05:11;;;;;;;10.95;1.67;;;23.40;99.90;;;;;;5050019;28;20093;-85
2023/08/20 10:07:38;;;;;;;9.70;2.05;;;23.50;99.90;;;;;;5086266;28;20087;-84
2023/08/20 10:10:06;;;;;;;12.05;2.22;;;23.70;99.90;;;;;;5087692;28;20047;-87
2023/08/20 10:12:32;;;;;;;10.75;1.63;;;23.90;99.90;;;;;;5082175;28;20037;-83
2023/08/20 10:15:02;;;;;;;13.63;2.15;;;24.00;99.90;;;;;;5055656;28;20089;-83
2023/08/20 10:17:33;;;;;;;8.75;1.20;;;24.10;99.90;;;;;;5068593;28;20044;-83
2023/08/20 10:20:00;;;;;;;9.93;2.80;;;24.10;99.90;;;;;;5043379;28;20388;-82
2023/08/20 10:22:53;;;;;;;5.13;1.15;;;24.00;99.90;;;;;;5052316;28;20205;-86
2023/08/20 10:25:26;;;;;;;11.23;1.73;;;24.20;99.90;;;;;;5083939;28;20059;-87
2023/08/20 10:28:10;;;;;;;9.10;1.45;;;24.20;99.90;;;;;;5063990;28;20039;-86
2023/08/20 10:30:36;;;;;;;8.45;1.50;;;24.10;99.90;;;;;;5062702;28;20411;-87
2023/08/20 10:33:03;;;;;;;11.20;1.70;;;24.10;99.90;;;;;;5080787;28;20052;-86
2023/08/20 10:35:38;;;;;;;8.32;1.40;;;24.10;99.90;;;;;;5051231;28;20046;-87
2023/08/20 10:38:05;;;;;;;8.88;1.48;;;24.00;99.90;;;;;;5049678;28;20423;-86
2023/08/20 10:40:55;;;;;;;9.73;1.75;;;23.90;99.90;;;;;;5070217;28;20044;-86
2023/08/20 10:43:33;;;;;;;6.05;1.17;;;23.80;99.90;;;;;;5070852;28;20910;-87
2023/08/20 10:46:19;;;;;;;7.63;1.55;;;23.80;99.90;;;;;;5049114;28;20127;-86
2023/08/20 10:48:53;;;;;;;9.77;1.10;;;23.90;99.90;;;;;;5063770;28;20127;-86
2023/08/20 10:51:27;;;;;;;10.85;1.30;;;24.00;99.90;;;;;;5070714;28;20125;-88
2023/08/20 10:54:05;;;;;;;11.68;1.65;;;24.00;99.90;;;;;;5066868;28;20139;-86
2023/08/20 10:56:48;;;;;;;9.70;1.75;;;24.10;99.90;;;;;;5064514;28;20106;-86
2023/08/20 10:59:21;;;;;;;11.75;1.42;;;24.20;99.90;;;;;;5066092;28;20421;-87
2023/08/20 11:01:48;;;;;;;8.80;1.08;;;24.20;99.90;;;;;;5073278;28;20045;-84
2023/08/20 11:04:16;;;;;;;10.98;1.80;;;24.20;99.90;;;;;;5083412;28;20071;-86
2023/08/20 11:06:42;;;;;;;11.07;1.52;;;24.20;99.90;;;;;;5050068;28;20125;-84
2023/08/20 11:09:08;;;;;;;6.90;1.42;;;24.00;99.90;;;;;;5061278;28;20058;-85
2023/08/20 11:11:33;;;;;;;7.65;1.35;;;24.00;99.90;;;;;;5042632;28;20367;-85
2023/08/20 11:14:11;;;;;;;7.85;1.23;;;24.00;99.90;;;;;;5063655;28;20127;-86
2023/08/20 11:16:37;;;;;;;10.90;1.35;;;24.00;99.90;;;;;;5085094;28;20332;-86
2023/08/20 11:19:08;;;;;;;10.35;1.17;;;24.20;99.90;;;;;;5051729;28;20048;-86
2023/08/20 11:21:34;;;;;;;8.90;1.42;;;24.30;99.90;;;;;;5064354;28;20037;-85
2023/08/20 11:24:01;;;;;;;8.38;1.35;;;24.50;99.90;;;;;;5062149;28;20056;-86
2023/08/20 11:26:27;;;;;;;8.98;1.50;;;24.60;99.90;;;;;;5069100;28;20044;-86
2023/08/20 11:28:53;;;;;;;10.75;1.38;;;24.70;99.90;;;;;;5051634;28;20056;-86
2023/08/20 11:31:19;;;;;;;9.30;1.13;;;24.80;99.90;;;;;;5066262;28;20320;-86
2023/08/20 11:33:47;;;;;;;7.03;1.25;;;24.90;99.90;;;;;;5052294;28;20040;-84
2023/08/20 11:36:19;;;;;;;5.90;1.17;;;25.00;99.90;;;;;;5067550;28;20406;-84
2023/08/20 11:38:54;;;;;;;7.22;1.30;;;25.00;99.90;;;;;;5058897;28;20131;-85
2023/08/20 11:41:24;;;;;;;12.38;2.00;;;25.00;99.90;;;;;;5056853;28;20071;-85
2023/08/20 11:43:52;;;;;;;9.77;1.35;;;25.10;99.90;;;;;;5066681;28;20046;-85
2023/08/20 11:46:23;;;;;;;11.55;2.42;;;25.20;99.90;;;;;;5067746;28;20094;-85
2023/08/20 11:49:04;;;;;;;7.82;1.08;;;25.30;99.90;;;;;;5051516;28;20063;-86
2023/08/20 11:51:41;;;;;;;7.70;1.45;;;25.30;99.90;;;;;;5052748;28;20471;-84
2023/08/20 11:54:11;;;;;;;9.10;1.10;;;25.20;99.90;;;;;;5036953;28;20040;-85
2023/08/20 11:56:45;;;;;;;6.65;1.30;;;25.10;99.90;;;;;;5063104;28;20159;-86
2023/08/20 11:59:11;;;;;;;7.30;1.27;;;25.00;99.90;;;;;;5051990;28;20104;-85
2023/08/20 12:01:37;;;;;;;5.47;1.02;;;24.90;99.90;;;;;;5048923;28;20478;-85
2023/08/20 12:04:08;;;;;;;6.95;1.10;;;24.90;99.90;;;;;;5069829;28;20055;-86
2023/08/20 12:06:38;;;;;;;10.85;1.35;;;24.80;99.90;;;;;;5086892;28;20043;-86
2023/08/20 12:09:23;;;;;;;8.70;1.40;;;24.90;99.90;;;;;;5069111;28;20052;-86
2023/08/20 12:11:55;;;;;;;9.40;1.27;;;25.10;99.90;;;;;;5035702;28;20055;-86
2023/08/20 12:14:21;;;;;;;6.88;1.30;;;25.10;99.90;;;;;;5063822;28;20052;-85
2023/08/20 12:16:47;;;;;;;6.88;1.10;;;25.10;99.90;;;;;;5050818;28;20040;-86
2023/08/20 12:19:14;;;;;;;8.13;1.00;;;25.10;99.90;;;;;;5087572;28;20048;-87
2023/08/20 12:21:41;;;;;;;11.38;1.30;;;25.10;99.90;;;;;;5050595;28;20066;-86
2023/08/20 12:24:08;;;;;;;3.90;0.82;;;25.10;99.90;;;;;;5054854;28;20044;-87
2023/08/20 12:26:34;;;;;;;5.57;1.13;;;25.10;99.90;;;;;;5053914;28;20511;-86
2023/08/20 12:28:59;;;;;;;4.75;1.13;;;25.10;99.90;;;;;;5068645;28;20086;-86
2023/08/20 12:31:25;;;;;;;7.95;1.55;;;25.30;99.90;;;;;;5088999;28;20040;-85
2023/08/20 12:33:51;;;;;;;12.00;1.40;;;25.40;99.90;;;;;;5070282;28;20457;-87
2023/08/20 12:36:16;;;;;;;6.35;0.90;;;25.40;99.90;;;;;;5053922;28;20043;-86
2023/08/20 12:38:42;;;;;;;7.15;1.00;;;25.40;99.90;;;;;;5070585;28;20591;-86
2023/08/20 12:41:08;;;;;;;8.80;1.50;;;25.40;99.90;;;;;;5069695;28;20044;-87
2023/08/20 12:43:34;;;;;;;6.55;0.85;;;25.30;99.90;;;;;;5069620;28;20044;-86